sensor_id;sensor_type;location;lat;lon;timestamp;temperature;humidity
16116;DHT22;8162;47.104;15.432;2022-12-07T00:01:17;1.80;98.10
16116;DHT22;8162;47.104;15.432;2022-12-07T00:03:44;1.70;97.20
16116;DHT22;8162;47.104;15.432;2022-12-07T00:06:12;1.60;96.50
16116;DHT22;8162;47.104;15.432;2022-12-07T00:08:38;1.60;98.00
16116;DHT22;8162;47.104;15.432;2022-12-07T00:11:06;1.70;98.10
16116;DHT22;8162;47.104;15.432;2022-12-07T00:13:32;1.70;98.30
16116;DHT22;8162;47.104;15.432;2022-12-07T00:16:02;1.60;96.50
16116;DHT22;8162;47.104;15.432;2022-12-07T00:18:28;1.60;97.90
16116;DHT22;8162;47.104;15.432;2022-12-07T00:21:03;1.70;98.10
16116;DHT22;8162;47.104;15.432;2022-12-07T00:23:29;1.70;97.90
16116;DHT22;8162;47.104;15.432;2022-12-07T00:25:55;1.70;98.20
16116;DHT22;8162;47.104;15.432;2022-12-07T00:28:21;1.60;97.70
16116;DHT22;8162;47.104;15.432;2022-12-07T00:30:46;1.60;97.70
16116;DHT22;8162;47.104;15.432;2022-12-07T00:33:12;1.60;97.90
16116;DHT22;8162;47.104;15.432;2022-12-07T00:35:38;1.60;98.20
16116;DHT22;8162;47.104;15.432;2022-12-07T00:38:03;1.60;98.40
16116;DHT22;8162;47.104;15.432;2022-12-07T00:40:29;1.60;98.20
16116;DHT22;8162;47.104;15.432;2022-12-07T00:42:54;1.60;97.60
16116;DHT22;8162;47.104;15.432;2022-12-07T00:45:20;1.60;98.20
16116;DHT22;8162;47.104;15.432;2022-12-07T00:47:46;1.60;98.10
16116;DHT22;8162;47.104;15.432;2022-12-07T00:50:11;1.60;98.30
16116;DHT22;8162;47.104;15.432;2022-12-07T00:52:37;1.60;97.20
16116;DHT22;8162;47.104;15.432;2022-12-07T00:55:03;1.50;96.50
16116;DHT22;8162;47.104;15.432;2022-12-07T00:57:30;1.50;97.60
16116;DHT22;8162;47.104;15.432;2022-12-07T00:59:56;1.50;97.80
16116;DHT22;8162;47.104;15.432;2022-12-07T01:02:23;1.50;98.20
16116;DHT22;8162;47.104;15.432;2022-12-07T01:04:49;1.60;98.20
16116;DHT22;8162;47.104;15.432;2022-12-07T01:07:15;1.60;97.10
16116;DHT22;8162;47.104;15.432;2022-12-07T01:09:40;1.50;97.20
16116;DHT22;8162;47.104;15.432;2022-12-07T01:12:06;1.50;97.90
16116;DHT22;8162;47.104;15.432;2022-12-07T01:14:32;1.40;97.30
16116;DHT22;8162;47.104;15.432;2022-12-07T01:16:57;1.50;97.70
16116;DHT22;8162;47.104;15.432;2022-12-07T01:19:23;1.40;96.90
16116;DHT22;8162;47.104;15.432;2022-12-07T01:21:48;1.40;96.70
16116;DHT22;8162;47.104;15.432;2022-12-07T01:24:14;1.40;97.60
16116;DHT22;8162;47.104;15.432;2022-12-07T01:26:40;1.40;98.20
16116;DHT22;8162;47.104;15.432;2022-12-07T01:29:06;1.50;98.40
16116;DHT22;8162;47.104;15.432;2022-12-07T01:31:32;1.50;98.40
16116;DHT22;8162;47.104;15.432;2022-12-07T01:33:59;1.50;98.30
16116;DHT22;8162;47.104;15.432;2022-12-07T01:36:27;1.50;97.90
16116;DHT22;8162;47.104;15.432;2022-12-07T01:38:59;1.50;98.00
16116;DHT22;8162;47.104;15.432;2022-12-07T01:41:27;1.50;98.40
16116;DHT22;8162;47.104;15.432;2022-12-07T01:46:38;1.50;98.00
16116;DHT22;8162;47.104;15.432;2022-12-07T01:49:07;1.60;98.20
16116;DHT22;8162;47.104;15.432;2022-12-07T01:51:34;1.60;98.20
16116;DHT22;8162;47.104;15.432;2022-12-07T01:54:03;1.60;98.20
16116;DHT22;8162;47.104;15.432;2022-12-07T01:56:29;1.50;97.20
16116;DHT22;8162;47.104;15.432;2022-12-07T01:58:56;1.50;98.00
16116;DHT22;8162;47.104;15.432;2022-12-07T02:01:22;1.50;97.10
16116;DHT22;8162;47.104;15.432;2022-12-07T02:03:48;1.40;97.70
16116;DHT22;8162;47.104;15.432;2022-12-07T02:06:19;1.50;98.30
16116;DHT22;8162;47.104;15.432;2022-12-07T02:08:46;1.50;98.00
16116;DHT22;8162;47.104;15.432;2022-12-07T02:11:13;1.50;97.90
16116;DHT22;8162;47.104;15.432;2022-12-07T02:13:41;1.50;97.80
16116;DHT22;8162;47.104;15.432;2022-12-07T02:28:05;1.40;97.90
16116;DHT22;8162;47.104;15.432;2022-12-07T02:30:08;1.40;98.10
16116;DHT22;8162;47.104;15.432;2022-12-07T02:32:56;1.40;98.10
16116;DHT22;8162;47.104;15.432;2022-12-07T02:40:54;1.40;98.20
16116;DHT22;8162;47.104;15.432;2022-12-07T02:43:26;1.40;97.70
16116;DHT22;8162;47.104;15.432;2022-12-07T02:45:59;1.20;97.30
16116;DHT22;8162;47.104;15.432;2022-12-07T02:48:27;1.20;97.00
16116;DHT22;8162;47.104;15.432;2022-12-07T02:50:54;1.20;98.10
16116;DHT22;8162;47.104;15.432;2022-12-07T02:53:36;1.20;97.60
16116;DHT22;8162;47.104;15.432;2022-12-07T02:58:42;1.10;97.90
16116;DHT22;8162;47.104;15.432;2022-12-07T03:04:17;1.10;98.10
16116;DHT22;8162;47.104;15.432;2022-12-07T03:06:53;1.10;98.00
16116;DHT22;8162;47.104;15.432;2022-12-07T03:09:31;1.10;97.80
16116;DHT22;8162;47.104;15.432;2022-12-07T03:12:09;1.10;98.20
16116;DHT22;8162;47.104;15.432;2022-12-07T03:14:48;1.00;97.60
16116;DHT22;8162;47.104;15.432;2022-12-07T03:17:21;1.00;97.90
16116;DHT22;8162;47.104;15.432;2022-12-07T03:19:52;1.00;97.60
16116;DHT22;8162;47.104;15.432;2022-12-07T03:22:19;1.00;97.90
16116;DHT22;8162;47.104;15.432;2022-12-07T03:24:58;1.00;97.70
16116;DHT22;8162;47.104;15.432;2022-12-07T03:27:37;1.00;97.80
16116;DHT22;8162;47.104;15.432;2022-12-07T03:30:13;0.90;97.50
16116;DHT22;8162;47.104;15.432;2022-12-07T03:32:53;1.00;98.40
16116;DHT22;8162;47.104;15.432;2022-12-07T03:35:42;1.00;98.50
16116;DHT22;8162;47.104;15.432;2022-12-07T03:38:17;1.00;98.10
16116;DHT22;8162;47.104;15.432;2022-12-07T03:43:16;0.80;97.70
16116;DHT22;8162;47.104;15.432;2022-12-07T03:45:48;0.80;97.80
16116;DHT22;8162;47.104;15.432;2022-12-07T03:48:33;0.80;97.20
16116;DHT22;8162;47.104;15.432;2022-12-07T03:53:43;0.80;97.60
16116;DHT22;8162;47.104;15.432;2022-12-07T03:56:10;0.80;97.80
16116;DHT22;8162;47.104;15.432;2022-12-07T03:58:37;0.80;98.00
16116;DHT22;8162;47.104;15.432;2022-12-07T04:01:03;0.80;97.80
16116;DHT22;8162;47.104;15.432;2022-12-07T04:03:29;0.80;97.90
16116;DHT22;8162;47.104;15.432;2022-12-07T04:05:55;0.80;97.80
16116;DHT22;8162;47.104;15.432;2022-12-07T04:08:21;0.80;97.90
16116;DHT22;8162;47.104;15.432;2022-12-07T04:10:47;0.80;97.50
16116;DHT22;8162;47.104;15.432;2022-12-07T04:13:12;0.70;97.20
16116;DHT22;8162;47.104;15.432;2022-12-07T04:15:38;0.60;97.20
16116;DHT22;8162;47.104;15.432;2022-12-07T04:18:03;0.60;97.30
16116;DHT22;8162;47.104;15.432;2022-12-07T04:20:29;0.60;96.60
16116;DHT22;8162;47.104;15.432;2022-12-07T04:22:55;0.50;95.60
16116;DHT22;8162;47.104;15.432;2022-12-07T04:25:20;0.30;96.20
16116;DHT22;8162;47.104;15.432;2022-12-07T04:27:46;0.40;97.80
16116;DHT22;8162;47.104;15.432;2022-12-07T04:30:12;0.40;98.00
16116;DHT22;8162;47.104;15.432;2022-12-07T04:32:38;0.50;98.00
16116;DHT22;8162;47.104;15.432;2022-12-07T04:35:04;0.50;98.00
16116;DHT22;8162;47.104;15.432;2022-12-07T04:37:29;0.40;97.20
16116;DHT22;8162;47.104;15.432;2022-12-07T04:39:55;0.40;97.70
16116;DHT22;8162;47.104;15.432;2022-12-07T04:42:21;0.50;98.00
16116;DHT22;8162;47.104;15.432;2022-12-07T04:44:46;0.40;97.50
16116;DHT22;8162;47.104;15.432;2022-12-07T04:47:12;0.40;97.80
16116;DHT22;8162;47.104;15.432;2022-12-07T04:49:38;0.40;98.00
16116;DHT22;8162;47.104;15.432;2022-12-07T04:52:03;0.40;97.10
16116;DHT22;8162;47.104;15.432;2022-12-07T04:54:29;0.40;97.50
16116;DHT22;8162;47.104;15.432;2022-12-07T04:56:55;0.40;98.00
16116;DHT22;8162;47.104;15.432;2022-12-07T04:59:20;0.40;97.50
16116;DHT22;8162;47.104;15.432;2022-12-07T05:01:46;0.40;98.10
16116;DHT22;8162;47.104;15.432;2022-12-07T05:04:12;0.40;98.10
16116;DHT22;8162;47.104;15.432;2022-12-07T05:06:37;0.40;98.00
16116;DHT22;8162;47.104;15.432;2022-12-07T05:09:04;0.40;97.90
16116;DHT22;8162;47.104;15.432;2022-12-07T05:11:29;0.40;97.20
16116;DHT22;8162;47.104;15.432;2022-12-07T05:14:10;0.40;97.60
16116;DHT22;8162;47.104;15.432;2022-12-07T05:16:36;0.40;97.50
16116;DHT22;8162;47.104;15.432;2022-12-07T05:19:03;0.40;98.00
16116;DHT22;8162;47.104;15.432;2022-12-07T05:21:28;0.40;98.00
16116;DHT22;8162;47.104;15.432;2022-12-07T05:23:54;0.50;98.10
16116;DHT22;8162;47.104;15.432;2022-12-07T05:26:20;0.50;98.20
16116;DHT22;8162;47.104;15.432;2022-12-07T05:28:50;0.50;97.60
16116;DHT22;8162;47.104;15.432;2022-12-07T05:31:16;0.60;97.50
16116;DHT22;8162;47.104;15.432;2022-12-07T05:33:41;0.50;96.00
16116;DHT22;8162;47.104;15.432;2022-12-07T05:36:07;0.40;96.20
16116;DHT22;8162;47.104;15.432;2022-12-07T05:38:33;0.40;96.50
16116;DHT22;8162;47.104;15.432;2022-12-07T05:41:03;0.30;95.80
16116;DHT22;8162;47.104;15.432;2022-12-07T05:43:30;0.30;96.60
16116;DHT22;8162;47.104;15.432;2022-12-07T05:45:55;0.40;97.70
16116;DHT22;8162;47.104;15.432;2022-12-07T05:48:21;0.40;96.60
16116;DHT22;8162;47.104;15.432;2022-12-07T05:50:50;0.40;96.60
16116;DHT22;8162;47.104;15.432;2022-12-07T05:53:16;0.50;96.90
16116;DHT22;8162;47.104;15.432;2022-12-07T05:55:43;0.50;97.20
16116;DHT22;8162;47.104;15.432;2022-12-07T05:58:09;0.40;95.50
16116;DHT22;8162;47.104;15.432;2022-12-07T06:00:57;0.50;97.10
16116;DHT22;8162;47.104;15.432;2022-12-07T06:03:23;0.50;96.00
16116;DHT22;8162;47.104;15.432;2022-12-07T06:05:49;0.40;95.80
16116;DHT22;8162;47.104;15.432;2022-12-07T06:08:15;0.40;96.60
16116;DHT22;8162;47.104;15.432;2022-12-07T06:10:41;0.50;97.30
16116;DHT22;8162;47.104;15.432;2022-12-07T06:13:08;0.40;96.50
16116;DHT22;8162;47.104;15.432;2022-12-07T06:15:36;0.50;97.30
16116;DHT22;8162;47.104;15.432;2022-12-07T06:18:02;0.50;96.60
16116;DHT22;8162;47.104;15.432;2022-12-07T06:20:27;0.50;96.90
16116;DHT22;8162;47.104;15.432;2022-12-07T06:22:53;0.40;96.60
16116;DHT22;8162;47.104;15.432;2022-12-07T06:25:18;0.40;96.60
16116;DHT22;8162;47.104;15.432;2022-12-07T06:27:44;0.40;96.80
16116;DHT22;8162;47.104;15.432;2022-12-07T06:30:10;0.40;96.60
16116;DHT22;8162;47.104;15.432;2022-12-07T06:32:36;0.40;96.90
16116;DHT22;8162;47.104;15.432;2022-12-07T06:35:02;0.40;96.90
16116;DHT22;8162;47.104;15.432;2022-12-07T06:37:28;0.40;97.20
16116;DHT22;8162;47.104;15.432;2022-12-07T06:39:54;0.40;97.00
16116;DHT22;8162;47.104;15.432;2022-12-07T06:42:19;0.30;96.40
16116;DHT22;8162;47.104;15.432;2022-12-07T06:44:45;0.40;97.00
16116;DHT22;8162;47.104;15.432;2022-12-07T06:47:11;0.30;95.20
16116;DHT22;8162;47.104;15.432;2022-12-07T06:49:36;0.20;96.20
16116;DHT22;8162;47.104;15.432;2022-12-07T06:52:02;0.30;97.30
16116;DHT22;8162;47.104;15.432;2022-12-07T06:54:30;0.40;97.50
16116;DHT22;8162;47.104;15.432;2022-12-07T06:56:56;0.40;97.30
16116;DHT22;8162;47.104;15.432;2022-12-07T06:59:21;0.40;97.00
16116;DHT22;8162;47.104;15.432;2022-12-07T07:01:47;0.40;96.90
16116;DHT22;8162;47.104;15.432;2022-12-07T07:04:13;0.50;97.00
16116;DHT22;8162;47.104;15.432;2022-12-07T07:06:38;0.40;96.60
16116;DHT22;8162;47.104;15.432;2022-12-07T07:09:04;0.50;96.60
16116;DHT22;8162;47.104;15.432;2022-12-07T07:11:30;0.50;97.40
16116;DHT22;8162;47.104;15.432;2022-12-07T07:13:55;0.50;96.50
16116;DHT22;8162;47.104;15.432;2022-12-07T07:16:24;0.50;97.20
16116;DHT22;8162;47.104;15.432;2022-12-07T07:18:49;0.60;96.70
16116;DHT22;8162;47.104;15.432;2022-12-07T07:21:15;0.60;95.70
16116;DHT22;8162;47.104;15.432;2022-12-07T07:23:41;0.60;96.10
16116;DHT22;8162;47.104;15.432;2022-12-07T07:26:06;0.60;95.60
16116;DHT22;8162;47.104;15.432;2022-12-07T07:28:32;0.60;96.70
16116;DHT22;8162;47.104;15.432;2022-12-07T07:30:58;0.70;97.10
16116;DHT22;8162;47.104;15.432;2022-12-07T07:33:23;0.80;97.20
16116;DHT22;8162;47.104;15.432;2022-12-07T07:35:49;0.80;97.20
16116;DHT22;8162;47.104;15.432;2022-12-07T07:38:15;0.90;97.30
16116;DHT22;8162;47.104;15.432;2022-12-07T07:40:40;0.80;94.60
16116;DHT22;8162;47.104;15.432;2022-12-07T07:43:06;0.80;96.60
16116;DHT22;8162;47.104;15.432;2022-12-07T07:45:32;0.90;97.30
16116;DHT22;8162;47.104;15.432;2022-12-07T07:47:57;1.00;96.40
16116;DHT22;8162;47.104;15.432;2022-12-07T07:50:23;0.90;95.20
16116;DHT22;8162;47.104;15.432;2022-12-07T07:52:50;1.00;96.20
16116;DHT22;8162;47.104;15.432;2022-12-07T07:55:16;1.00;96.10
16116;DHT22;8162;47.104;15.432;2022-12-07T07:57:42;1.00;96.50
16116;DHT22;8162;47.104;15.432;2022-12-07T08:00:11;1.10;96.50
16116;DHT22;8162;47.104;15.432;2022-12-07T08:02:37;1.20;97.20
16116;DHT22;8162;47.104;15.432;2022-12-07T08:05:03;1.20;96.50
16116;DHT22;8162;47.104;15.432;2022-12-07T08:07:29;1.20;96.80
16116;DHT22;8162;47.104;15.432;2022-12-07T08:09:54;1.30;96.80
16116;DHT22;8162;47.104;15.432;2022-12-07T08:12:20;1.30;96.50
16116;DHT22;8162;47.104;15.432;2022-12-07T08:14:45;1.30;96.50
16116;DHT22;8162;47.104;15.432;2022-12-07T08:17:12;1.30;95.10
16116;DHT22;8162;47.104;15.432;2022-12-07T08:19:38;1.40;96.50
16116;DHT22;8162;47.104;15.432;2022-12-07T08:22:04;1.40;96.50
16116;DHT22;8162;47.104;15.432;2022-12-07T08:24:30;1.40;96.10
16116;DHT22;8162;47.104;15.432;2022-12-07T08:26:58;1.50;96.40
16116;DHT22;8162;47.104;15.432;2022-12-07T08:29:23;1.50;96.00
16116;DHT22;8162;47.104;15.432;2022-12-07T08:31:49;1.60;96.50
16116;DHT22;8162;47.104;15.432;2022-12-07T08:34:14;1.70;96.20
16116;DHT22;8162;47.104;15.432;2022-12-07T08:36:40;1.70;96.50
16116;DHT22;8162;47.104;15.432;2022-12-07T08:39:06;1.80;96.00
16116;DHT22;8162;47.104;15.432;2022-12-07T08:41:32;1.80;96.10
16116;DHT22;8162;47.104;15.432;2022-12-07T08:43:58;1.70;94.80
16116;DHT22;8162;47.104;15.432;2022-12-07T08:46:32;1.80;96.30
16116;DHT22;8162;47.104;15.432;2022-12-07T08:49:08;1.80;95.90
16116;DHT22;8162;47.104;15.432;2022-12-07T08:51:36;1.80;95.80
16116;DHT22;8162;47.104;15.432;2022-12-07T08:54:05;1.80;95.00
16116;DHT22;8162;47.104;15.432;2022-12-07T08:56:32;1.80;96.00
16116;DHT22;8162;47.104;15.432;2022-12-07T08:58:58;1.90;96.50
16116;DHT22;8162;47.104;15.432;2022-12-07T09:01:24;1.80;95.30
16116;DHT22;8162;47.104;15.432;2022-12-07T09:03:49;1.90;96.40
16116;DHT22;8162;47.104;15.432;2022-12-07T09:06:15;2.00;96.50
16116;DHT22;8162;47.104;15.432;2022-12-07T09:08:44;2.00;94.80
16116;DHT22;8162;47.104;15.432;2022-12-07T09:11:11;2.00;94.80
16116;DHT22;8162;47.104;15.432;2022-12-07T09:13:36;2.10;95.50
16116;DHT22;8162;47.104;15.432;2022-12-07T09:16:02;2.10;95.70
16116;DHT22;8162;47.104;15.432;2022-12-07T09:18:28;2.20;95.80
16116;DHT22;8162;47.104;15.432;2022-12-07T09:20:54;2.30;95.50
16116;DHT22;8162;47.104;15.432;2022-12-07T09:23:19;2.20;93.90
16116;DHT22;8162;47.104;15.432;2022-12-07T09:25:45;2.30;95.10
16116;DHT22;8162;47.104;15.432;2022-12-07T09:28:11;2.40;94.20
16116;DHT22;8162;47.104;15.432;2022-12-07T09:30:36;2.40;93.60
16116;DHT22;8162;47.104;15.432;2022-12-07T09:33:02;2.50;93.40
16116;DHT22;8162;47.104;15.432;2022-12-07T09:35:28;2.50;92.70
16116;DHT22;8162;47.104;15.432;2022-12-07T09:37:53;2.50;91.50
16116;DHT22;8162;47.104;15.432;2022-12-07T09:40:21;2.50;93.80
16116;DHT22;8162;47.104;15.432;2022-12-07T09:42:51;2.70;94.60
16116;DHT22;8162;47.104;15.432;2022-12-07T09:45:21;2.80;92.50
16116;DHT22;8162;47.104;15.432;2022-12-07T09:47:47;2.80;93.50
16116;DHT22;8162;47.104;15.432;2022-12-07T09:50:16;2.90;92.10
16116;DHT22;8162;47.104;15.432;2022-12-07T09:52:45;3.00;93.00
16116;DHT22;8162;47.104;15.432;2022-12-07T09:55:18;3.00;93.90
16116;DHT22;8162;47.104;15.432;2022-12-07T09:57:45;3.10;93.20
16116;DHT22;8162;47.104;15.432;2022-12-07T10:00:17;3.10;93.60
16116;DHT22;8162;47.104;15.432;2022-12-07T10:02:57;3.10;93.00
16116;DHT22;8162;47.104;15.432;2022-12-07T10:05:46;3.10;93.30
16116;DHT22;8162;47.104;15.432;2022-12-07T10:08:14;3.10;89.40
16116;DHT22;8162;47.104;15.432;2022-12-07T10:10:42;3.10;92.20
16116;DHT22;8162;47.104;15.432;2022-12-07T10:13:19;3.10;89.40
16116;DHT22;8162;47.104;15.432;2022-12-07T10:15:57;3.20;91.80
16116;DHT22;8162;47.104;15.432;2022-12-07T10:21:17;3.30;93.40
16116;DHT22;8162;47.104;15.432;2022-12-07T10:31:41;3.50;93.60
16116;DHT22;8162;47.104;15.432;2022-12-07T10:34:28;3.50;92.10
16116;DHT22;8162;47.104;15.432;2022-12-07T10:39:55;3.50;91.20
16116;DHT22;8162;47.104;15.432;2022-12-07T10:42:29;3.50;91.50
16116;DHT22;8162;47.104;15.432;2022-12-07T10:48:02;3.60;88.70
16116;DHT22;8162;47.104;15.432;2022-12-07T11:01:54;3.70;88.40
16116;DHT22;8162;47.104;15.432;2022-12-07T11:18:06;3.90;92.20
16116;DHT22;8162;47.104;15.432;2022-12-07T11:26:04;3.70;89.00
16116;DHT22;8162;47.104;15.432;2022-12-07T11:31:12;3.70;89.20
16116;DHT22;8162;47.104;15.432;2022-12-07T11:33:49;3.90;87.80
16116;DHT22;8162;47.104;15.432;2022-12-07T11:36:37;3.90;91.30
16116;DHT22;8162;47.104;15.432;2022-12-07T11:41:48;4.00;91.60
16116;DHT22;8162;47.104;15.432;2022-12-07T11:44:30;4.10;92.80
16116;DHT22;8162;47.104;15.432;2022-12-07T11:52:48;4.30;92.70
16116;DHT22;8162;47.104;15.432;2022-12-07T11:58:11;4.20;92.60
16116;DHT22;8162;47.104;15.432;2022-12-07T12:00:40;4.20;93.50
16116;DHT22;8162;47.104;15.432;2022-12-07T12:03:14;4.20;92.30
16116;DHT22;8162;47.104;15.432;2022-12-07T12:05:41;4.30;93.40
16116;DHT22;8162;47.104;15.432;2022-12-07T12:08:21;4.40;94.20
16116;DHT22;8162;47.104;15.432;2022-12-07T12:10:58;4.50;93.20
16116;DHT22;8162;47.104;15.432;2022-12-07T12:21:38;5.00;90.10
16116;DHT22;8162;47.104;15.432;2022-12-07T12:24:17;5.10;89.50
16116;DHT22;8162;47.104;15.432;2022-12-07T12:27:02;5.10;91.10
16116;DHT22;8162;47.104;15.432;2022-12-07T12:29:33;5.30;90.40
16116;DHT22;8162;47.104;15.432;2022-12-07T12:32:15;5.30;88.90
16116;DHT22;8162;47.104;15.432;2022-12-07T12:42:53;5.50;87.90
16116;DHT22;8162;47.104;15.432;2022-12-07T12:47:59;5.50;83.20
16116;DHT22;8162;47.104;15.432;2022-12-07T12:50:34;5.60;86.40
16116;DHT22;8162;47.104;15.432;2022-12-07T12:53:22;5.60;83.10
16116;DHT22;8162;47.104;15.432;2022-12-07T13:00:47;5.80;82.70
16116;DHT22;8162;47.104;15.432;2022-12-07T13:03:27;5.90;86.30
16116;DHT22;8162;47.104;15.432;2022-12-07T13:08:45;6.10;83.20
16116;DHT22;8162;47.104;15.432;2022-12-07T13:11:33;6.10;83.50
16116;DHT22;8162;47.104;15.432;2022-12-07T13:17:02;6.20;82.50
16116;DHT22;8162;47.104;15.432;2022-12-07T13:19:53;6.20;82.90
16116;DHT22;8162;47.104;15.432;2022-12-07T13:28:17;6.00;84.90
16116;DHT22;8162;47.104;15.432;2022-12-07T13:31:04;6.00;85.00
16116;DHT22;8162;47.104;15.432;2022-12-07T13:33:35;5.90;85.40
16116;DHT22;8162;47.104;15.432;2022-12-07T13:36:01;5.90;85.40
16116;DHT22;8162;47.104;15.432;2022-12-07T13:38:30;5.80;86.80
16116;DHT22;8162;47.104;15.432;2022-12-07T13:41:05;5.70;85.50
16116;DHT22;8162;47.104;15.432;2022-12-07T13:43:31;5.60;86.30
16116;DHT22;8162;47.104;15.432;2022-12-07T13:45:58;5.50;86.80
16116;DHT22;8162;47.104;15.432;2022-12-07T13:48:33;5.50;86.50
16116;DHT22;8162;47.104;15.432;2022-12-07T13:51:02;5.30;86.30
16116;DHT22;8162;47.104;15.432;2022-12-07T13:53:29;5.30;86.70
16116;DHT22;8162;47.104;15.432;2022-12-07T13:56:00;5.20;88.10
16116;DHT22;8162;47.104;15.432;2022-12-07T13:58:30;5.10;87.80
16116;DHT22;8162;47.104;15.432;2022-12-07T14:00:57;5.00;87.20
16116;DHT22;8162;47.104;15.432;2022-12-07T14:03:30;4.90;88.10
16116;DHT22;8162;47.104;15.432;2022-12-07T14:06:22;4.90;88.70
16116;DHT22;8162;47.104;15.432;2022-12-07T14:08:51;4.70;88.50
16116;DHT22;8162;47.104;15.432;2022-12-07T14:11:31;4.70;89.30
16116;DHT22;8162;47.104;15.432;2022-12-07T14:13:59;4.60;89.00
16116;DHT22;8162;47.104;15.432;2022-12-07T14:16:33;4.50;88.60
16116;DHT22;8162;47.104;15.432;2022-12-07T14:19:03;4.50;89.30
16116;DHT22;8162;47.104;15.432;2022-12-07T14:21:32;4.50;88.80
16116;DHT22;8162;47.104;15.432;2022-12-07T14:26:37;4.30;89.10
16116;DHT22;8162;47.104;15.432;2022-12-07T14:31:57;4.30;89.80
16116;DHT22;8162;47.104;15.432;2022-12-07T14:34:24;4.20;89.90
16116;DHT22;8162;47.104;15.432;2022-12-07T14:36:50;4.20;90.10
16116;DHT22;8162;47.104;15.432;2022-12-07T14:39:15;4.10;90.00
16116;DHT22;8162;47.104;15.432;2022-12-07T14:41:41;4.10;90.10
16116;DHT22;8162;47.104;15.432;2022-12-07T14:44:16;4.10;90.00
16116;DHT22;8162;47.104;15.432;2022-12-07T14:46:42;4.10;90.60
16116;DHT22;8162;47.104;15.432;2022-12-07T14:49:07;4.00;89.00
16116;DHT22;8162;47.104;15.432;2022-12-07T14:51:35;4.00;90.30
16116;DHT22;8162;47.104;15.432;2022-12-07T14:54:01;3.90;90.50
16116;DHT22;8162;47.104;15.432;2022-12-07T14:56:28;3.90;91.10
16116;DHT22;8162;47.104;15.432;2022-12-07T14:58:54;3.90;91.50
16116;DHT22;8162;47.104;15.432;2022-12-07T15:01:20;3.90;90.80
16116;DHT22;8162;47.104;15.432;2022-12-07T15:03:45;3.90;91.40
16116;DHT22;8162;47.104;15.432;2022-12-07T15:06:15;3.80;91.50
16116;DHT22;8162;47.104;15.432;2022-12-07T15:08:41;3.70;91.90
16116;DHT22;8162;47.104;15.432;2022-12-07T15:11:14;3.80;92.20
16116;DHT22;8162;47.104;15.432;2022-12-07T15:13:40;3.70;92.20
16116;DHT22;8162;47.104;15.432;2022-12-07T15:16:24;3.70;91.90
16116;DHT22;8162;47.104;15.432;2022-12-07T15:18:50;3.70;92.20
16116;DHT22;8162;47.104;15.432;2022-12-07T15:21:17;3.60;91.70
16116;DHT22;8162;47.104;15.432;2022-12-07T15:23:43;3.60;91.70
16116;DHT22;8162;47.104;15.432;2022-12-07T15:26:10;3.60;91.80
16116;DHT22;8162;47.104;15.432;2022-12-07T15:28:36;3.60;92.70
16116;DHT22;8162;47.104;15.432;2022-12-07T15:31:02;3.60;91.90
16116;DHT22;8162;47.104;15.432;2022-12-07T15:33:27;3.60;93.00
16116;DHT22;8162;47.104;15.432;2022-12-07T15:35:53;3.60;92.50
16116;DHT22;8162;47.104;15.432;2022-12-07T15:38:19;3.60;92.80
16116;DHT22;8162;47.104;15.432;2022-12-07T15:40:48;3.50;92.10
16116;DHT22;8162;47.104;15.432;2022-12-07T15:43:14;3.50;92.50
16116;DHT22;8162;47.104;15.432;2022-12-07T15:45:58;3.50;93.20
16116;DHT22;8162;47.104;15.432;2022-12-07T15:48:24;3.60;93.30
16116;DHT22;8162;47.104;15.432;2022-12-07T15:50:50;3.60;93.30
16116;DHT22;8162;47.104;15.432;2022-12-07T15:53:17;3.50;92.20
16116;DHT22;8162;47.104;15.432;2022-12-07T15:55:42;3.50;93.30
16116;DHT22;8162;47.104;15.432;2022-12-07T15:58:08;3.50;93.60
16116;DHT22;8162;47.104;15.432;2022-12-07T16:00:34;3.60;93.60
16116;DHT22;8162;47.104;15.432;2022-12-07T16:02:59;3.50;93.20
16116;DHT22;8162;47.104;15.432;2022-12-07T16:05:25;3.50;93.20
16116;DHT22;8162;47.104;15.432;2022-12-07T16:07:51;3.50;93.20
16116;DHT22;8162;47.104;15.432;2022-12-07T16:10:16;3.50;93.50
16116;DHT22;8162;47.104;15.432;2022-12-07T16:12:42;3.50;93.30
16116;DHT22;8162;47.104;15.432;2022-12-07T16:15:08;3.50;93.10
16116;DHT22;8162;47.104;15.432;2022-12-07T16:17:34;3.50;92.90
16116;DHT22;8162;47.104;15.432;2022-12-07T16:20:00;3.50;93.30
16116;DHT22;8162;47.104;15.432;2022-12-07T16:22:25;3.50;93.40
16116;DHT22;8162;47.104;15.432;2022-12-07T16:24:51;3.50;93.50
16116;DHT22;8162;47.104;15.432;2022-12-07T16:27:17;3.50;93.40
16116;DHT22;8162;47.104;15.432;2022-12-07T16:29:42;3.50;93.60
16116;DHT22;8162;47.104;15.432;2022-12-07T16:32:08;3.50;93.50
16116;DHT22;8162;47.104;15.432;2022-12-07T16:34:34;3.50;93.00
16116;DHT22;8162;47.104;15.432;2022-12-07T16:36:59;3.50;93.60
16116;DHT22;8162;47.104;15.432;2022-12-07T16:39:25;3.50;93.40
16116;DHT22;8162;47.104;15.432;2022-12-07T16:41:51;3.50;93.60
16116;DHT22;8162;47.104;15.432;2022-12-07T16:44:18;3.50;93.90
16116;DHT22;8162;47.104;15.432;2022-12-07T16:46:43;3.50;93.70
16116;DHT22;8162;47.104;15.432;2022-12-07T16:49:13;3.50;93.90
16116;DHT22;8162;47.104;15.432;2022-12-07T16:51:39;3.50;94.00
16116;DHT22;8162;47.104;15.432;2022-12-07T16:54:08;3.50;94.20
16116;DHT22;8162;47.104;15.432;2022-12-07T16:56:34;3.50;93.50
16116;DHT22;8162;47.104;15.432;2022-12-07T16:58:59;3.50;94.00
16116;DHT22;8162;47.104;15.432;2022-12-07T17:01:26;3.50;94.10
16116;DHT22;8162;47.104;15.432;2022-12-07T17:03:56;3.50;94.40
16116;DHT22;8162;47.104;15.432;2022-12-07T17:06:24;3.50;94.40
16116;DHT22;8162;47.104;15.432;2022-12-07T17:08:51;3.60;94.60
16116;DHT22;8162;47.104;15.432;2022-12-07T17:11:27;3.50;94.50
16116;DHT22;8162;47.104;15.432;2022-12-07T17:13:54;3.60;94.50
16116;DHT22;8162;47.104;15.432;2022-12-07T17:16:38;3.50;94.40
16116;DHT22;8162;47.104;15.432;2022-12-07T17:19:05;3.60;94.50
16116;DHT22;8162;47.104;15.432;2022-12-07T17:21:31;3.60;94.40
16116;DHT22;8162;47.104;15.432;2022-12-07T17:24:01;3.60;94.60
16116;DHT22;8162;47.104;15.432;2022-12-07T17:26:28;3.60;94.90
16116;DHT22;8162;47.104;15.432;2022-12-07T17:28:54;3.60;94.70
16116;DHT22;8162;47.104;15.432;2022-12-07T17:31:22;3.60;94.70
16116;DHT22;8162;47.104;15.432;2022-12-07T17:33:48;3.60;94.60
16116;DHT22;8162;47.104;15.432;2022-12-07T17:36:25;3.60;94.50
16116;DHT22;8162;47.104;15.432;2022-12-07T17:38:51;3.60;94.70
16116;DHT22;8162;47.104;15.432;2022-12-07T17:41:23;3.60;94.50
16116;DHT22;8162;47.104;15.432;2022-12-07T17:44:16;3.60;95.00
16116;DHT22;8162;47.104;15.432;2022-12-07T17:46:42;3.60;94.80
16116;DHT22;8162;47.104;15.432;2022-12-07T17:49:08;3.70;94.70
16116;DHT22;8162;47.104;15.432;2022-12-07T17:51:35;3.60;94.50
16116;DHT22;8162;47.104;15.432;2022-12-07T17:54:20;3.60;94.00
16116;DHT22;8162;47.104;15.432;2022-12-07T17:56:46;3.60;94.50
16116;DHT22;8162;47.104;15.432;2022-12-07T17:59:13;3.60;94.50
16116;DHT22;8162;47.104;15.432;2022-12-07T18:01:39;3.60;93.90
16116;DHT22;8162;47.104;15.432;2022-12-07T18:04:05;3.50;93.80
16116;DHT22;8162;47.104;15.432;2022-12-07T18:06:32;3.60;94.10